Time;durP1;ratioP1;P1;durP2;ratioP2;P2;SDS_P1;SDS_P2;PMS_P1;PMS_P2;Temp;Humidity;BMP_temperature;BMP_pressure;BME280_temperature;BME280_humidity;BME280_pressure;Samples;Min_cycle;Max_cycle;Signal;HPM_P1;HPM_P2
2023/05/16 00:02:22;;;;;;;21.03;5.07;;;;;;;13.71;71.60;101792.34;5256926;28;20025;-72
2023/05/16 00:04:55;;;;;;;15.57;3.37;;;;;;;13.45;72.43;101784.13;5256697;28;20025;-71
2023/05/16 00:07:26;;;;;;;21.47;3.97;;;;;;;13.72;71.02;101786.13;5257054;28;20021;-71
2023/05/16 00:09:57;;;;;;;21.57;4.13;;;;;;;13.49;72.85;101795.34;5256622;28;20358;-71
2023/05/16 00:12:29;;;;;;;22.57;4.43;;;;;;;13.45;72.21;101785.91;5256144;28;20220;-71
2023/05/16 00:15:00;;;;;;;17.77;3.83;;;;;;;13.55;70.62;101785.34;5221025;28;20358;-71
2023/05/16 00:17:32;;;;;;;20.30;4.90;;;;;;;13.59;69.96;101779.88;5256601;28;20028;-72
2023/05/16 00:20:09;;;;;;;22.93;5.17;;;;;;;13.58;70.39;101792.19;5256549;28;20021;-71
2023/05/16 00:22:41;;;;;;;18.40;3.40;;;;;;;13.65;69.72;101800.56;5256337;28;20066;-71
2023/05/16 00:25:12;;;;;;;20.20;3.40;;;;;;;13.40;70.50;101800.19;5256305;28;20021;-72
2023/05/16 00:27:44;;;;;;;19.07;4.10;;;;;;;13.35;70.13;101788.22;5256596;28;20064;-71
2023/05/16 00:30:15;;;;;;;19.73;4.10;;;;;;;13.42;69.86;101800.09;5255655;28;20478;-73
2023/05/16 00:32:47;;;;;;;12.30;3.33;;;;;;;13.06;70.47;101787.13;5252334;28;20104;-71
2023/05/16 00:35:18;;;;;;;18.17;4.50;;;;;;;13.05;71.31;101793.34;5225983;28;20033;-71
2023/05/16 00:37:50;;;;;;;18.37;4.17;;;;;;;13.11;70.18;101797.41;5238145;28;20033;-71
2023/05/16 00:40:21;;;;;;;18.80;3.77;;;;;;;12.95;71.16;101787.72;5256415;28;20063;-71
2023/05/16 00:42:52;;;;;;;17.97;4.47;;;;;;;12.80;71.97;101799.06;5255650;28;20120;-72
2023/05/16 00:45:24;;;;;;;17.87;4.13;;;;;;;12.76;71.98;101795.75;5237180;28;20055;-71
2023/05/16 00:47:55;;;;;;;19.23;4.37;;;;;;;12.95;71.51;101797.41;5256342;28;20033;-71
2023/05/16 00:50:27;;;;;;;17.67;4.13;;;;;;;12.76;72.34;101793.13;5256000;28;20037;-71
2023/05/16 00:52:58;;;;;;;17.63;4.33;;;;;;;12.85;71.00;101788.31;5238125;28;20474;-71
2023/05/16 00:55:30;;;;;;;15.83;3.73;;;;;;;12.76;70.84;101798.41;5255713;28;20025;-71
2023/05/16 00:58:01;;;;;;;19.53;4.10;;;;;;;12.77;70.79;101800.13;5236876;28;20024;-72
2023/05/16 01:00:33;;;;;;;19.70;4.47;;;;;;;12.59;72.46;101796.69;5255245;28;20033;-71
2023/05/16 01:03:05;;;;;;;17.93;4.63;;;;;;;12.47;72.31;101792.91;5195931;22;20046;-79
2023/05/16 01:05:36;;;;;;;15.87;3.97;;;;;;;12.49;71.39;101780.56;5234793;28;20050;-79
2023/05/16 01:08:07;;;;;;;15.37;3.53;;;;;;;12.35;71.95;101776.03;5237559;28;20019;-79
2023/05/16 01:10:48;;;;;;;17.67;3.60;;;;;;;12.33;71.93;101765.59;5181361;28;20102;-79
2023/05/16 01:13:45;;;;;;;19.33;4.07;;;;;;;12.63;70.92;101776.34;5237585;28;20472;-79
2023/05/16 01:16:41;;;;;;;20.33;4.77;;;;;;;12.78;70.89;101807.06;5237917;28;20028;-80
2023/05/16 01:19:30;;;;;;;15.43;4.03;;;;;;;12.30;71.35;101770.16;5199085;28;20508;-78
2023/05/16 01:22:10;;;;;;;16.33;3.87;;;;;;;12.15;72.18;101787.59;5256128;28;20051;-77
2023/05/16 01:25:05;;;;;;;13.53;3.53;;;;;;;12.22;71.54;101763.53;5254855;28;20040;-78
2023/05/16 01:27:37;;;;;;;16.95;3.58;;;;;;;12.22;70.86;101784.53;5237674;28;20017;-78
2023/05/16 01:30:17;;;;;;;15.43;3.67;;;;;;;11.98;72.17;101755.13;5254967;28;20454;-78
2023/05/16 01:32:49;;;;;;;13.10;2.97;;;;;;;11.88;72.65;101786.25;5221593;28;20043;-78
2023/05/16 01:35:20;;;;;;;16.90;3.80;;;;;;;11.77;71.64;101757.91;5170275;28;20127;-78
2023/05/16 01:38:17;;;;;;;22.67;4.30;;;;;;;11.94;72.14;101778.06;5236859;28;20045;-78
2023/05/16 01:41:06;;;;;;;15.90;3.70;;;;;;;12.20;71.82;101798.69;5170749;28;20043;-78
2023/05/16 01:43:45;;;;;;;15.93;3.57;;;;;;;11.84;71.81;101758.44;5235919;28;20478;-78
2023/05/16 01:46:28;;;;;;;21.63;4.03;;;;;;;11.98;73.65;101818.97;5237354;28;20452;-78
2023/05/16 01:49:21;;;;;;;17.37;4.13;;;;;;;12.10;71.29;101801.78;5170503;28;20458;-78
2023/05/16 01:52:10;;;;;;;17.07;4.20;;;;;;;12.05;71.63;101803.78;5170125;28;20113;-78
2023/05/16 01:54:45;;;;;;;18.13;3.70;;;;;;;11.72;72.38;101788.78;5182621;28;20028;-78
2023/05/16 01:57:17;;;;;;;13.83;4.13;;;;;;;11.52;72.82;101789.78;5254645;28;20029;-78
2023/05/16 01:59:49;;;;;;;16.50;3.27;;;;;;;11.47;71.96;101782.09;5253916;28;20033;-78
2023/05/16 02:02:20;;;;;;;16.60;4.43;;;;;;;11.40;72.81;101780.72;5254011;28;20056;-78
2023/05/16 02:04:52;;;;;;;19.10;3.50;;;;;;;11.40;72.04;101780.72;5255014;28;20060;-78
2023/05/16 02:07:23;;;;;;;16.83;3.67;;;;;;;11.34;73.54;101805.47;5225593;28;20023;-78
2023/05/16 02:09:54;;;;;;;10.67;2.83;;;;;;;11.45;72.77;101823.31;5164421;28;20035;-78
2023/05/16 02:12:26;;;;;;;15.53;3.43;;;;;;;11.51;72.32;101804.66;5234797;28;20027;-77
2023/05/16 02:14:57;;;;;;;13.20;3.40;;;;;;;11.34;73.54;101808.09;5164074;28;20076;-78
2023/05/16 02:17:29;;;;;;;25.57;4.90;;;;;;;11.56;71.84;101809.66;5233554;28;20019;-77
2023/05/16 02:20:05;;;;;;;16.00;3.77;;;;;;;11.42;72.57;101812.97;5235010;28;20038;-77
2023/05/16 02:22:39;;;;;;;12.70;3.00;;;;;;;11.21;73.78;101807.81;5177717;28;20054;-77
2023/05/16 02:25:11;;;;;;;15.45;3.85;;;;;;;11.24;72.59;101786.72;5226387;28;20030;-78
2023/05/16 02:27:42;;;;;;;16.00;3.57;;;;;;;11.29;72.86;101800.44;5200476;28;20034;-78
2023/05/16 02:30:14;;;;;;;12.93;3.80;;;;;;;11.18;74.16;101810.59;5231935;28;20103;-78
2023/05/16 02:32:45;;;;;;;14.80;3.67;;;;;;;11.29;73.57;101820.56;5169849;28;20182;-79
2023/05/16 02:35:16;;;;;;;12.23;2.90;;;;;;;11.29;73.27;101821.44;5170322;28;20027;-77
2023/05/16 02:37:48;;;;;;;14.60;4.63;;;;;;;11.04;74.84;101804.22;5169665;28;20022;-77
2023/05/16 02:40:19;;;;;;;12.73;3.43;;;;;;;10.89;76.18;101813.66;5169890;28;20084;-77
2023/05/16 02:42:50;;;;;;;14.63;3.03;;;;;;;10.91;75.30;101821.44;5168868;28;20030;-77
2023/05/16 02:45:22;;;;;;;18.40;3.57;;;;;;;10.86;75.28;101804.16;5170074;28;20385;-77
2023/05/16 02:47:53;;;;;;;19.80;3.10;;;;;;;10.78;76.63;101824.59;5235956;28;20728;-78
2023/05/16 02:50:24;;;;;;;17.70;3.97;;;;;;;10.83;75.95;101820.00;5236384;28;20030;-78
2023/05/16 02:52:58;;;;;;;15.57;3.63;;;;;;;10.72;75.71;101811.75;5169757;28;20022;-77
2023/05/16 02:55:29;;;;;;;13.27;3.50;;;;;;;10.97;75.16;101839.50;5169338;28;20049;-77
2023/05/16 02:58:01;;;;;;;15.33;2.90;;;;;;;10.74;76.29;101841.38;5169273;28;20030;-77
2023/05/16 03:00:32;;;;;;;15.53;3.20;;;;;;;10.83;75.83;101824.41;5169742;28;20167;-76
2023/05/16 03:03:04;;;;;;;21.60;4.00;;;;;;;10.91;75.39;101839.78;5169809;28;20055;-78
2023/05/16 03:05:35;;;;;;;16.10;3.03;;;;;;;10.69;76.41;101835.50;5169751;28;20098;-78
2023/05/16 03:08:06;;;;;;;12.80;3.03;;;;;;;10.93;75.25;101840.53;5169596;28;20023;-79
2023/05/16 03:10:38;;;;;;;19.17;4.70;;;;;;;10.77;75.42;101847.34;5169701;28;20089;-80
2023/05/16 03:13:09;;;;;;;13.60;2.93;;;;;;;10.81;76.23;101861.16;5168972;28;20042;-79
2023/05/16 03:15:40;;;;;;;21.90;5.17;;;;;;;10.86;75.61;101860.94;5169418;28;20027;-80
2023/05/16 03:18:12;;;;;;;17.70;3.13;;;;;;;10.68;76.61;101855.63;5169962;28;20029;-80
2023/05/16 03:20:43;;;;;;;15.97;3.97;;;;;;;10.60;76.59;101850.72;5169832;28;20027;-79
2023/05/16 03:23:15;;;;;;;14.13;3.73;;;;;;;10.37;77.87;101859.50;5168009;28;20521;-77
2023/05/16 03:25:46;;;;;;;16.63;2.83;;;;;;;10.92;76.63;101896.50;5172341;28;20054;-78
2023/05/16 03:28:18;;;;;;;16.50;2.90;;;;;;;10.73;76.65;101855.41;5171527;28;20041;-78
2023/05/16 03:30:49;;;;;;;15.73;3.87;;;;;;;10.72;77.04;101864.16;5224178;28;20403;-78
2023/05/16 03:33:20;;;;;;;11.53;2.80;;;;;;;10.58;77.26;101851.69;5158090;28;20030;-77
2023/05/16 03:35:52;;;;;;;18.87;3.87;;;;;;;10.26;79.24;101862.59;5172846;28;20079;-77
2023/05/16 03:38:23;;;;;;;16.33;3.07;;;;;;;10.54;78.66;101890.28;5172584;28;20015;-78
2023/05/16 03:40:55;;;;;;;15.10;3.40;;;;;;;10.34;78.42;101850.03;5172642;28;20111;-78
2023/05/16 03:43:26;;;;;;;21.50;4.57;;;;;;;10.42;78.43;101870.63;5238464;28;20022;-78
2023/05/16 03:46:00;;;;;;;14.83;4.00;;;;;;;10.32;79.11;101857.09;5239316;28;20106;-77
2023/05/16 03:48:31;;;;;;;16.08;3.65;;;;;;;10.01;81.02;101854.00;5239429;28;20054;-77
2023/05/16 03:51:03;;;;;;;14.67;4.27;;;;;;;10.59;78.63;101909.28;5239237;28;20439;-77
2023/05/16 03:53:36;;;;;;;20.37;4.40;;;;;;;10.36;78.67;101865.69;5172119;28;20054;-77
2023/05/16 03:56:07;;;;;;;14.67;4.60;;;;;;;10.27;78.84;101864.28;5172656;28;20373;-77
2023/05/16 03:58:39;;;;;;;12.73;3.63;;;;;;;10.25;80.60;101894.94;5171562;28;20034;-77
2023/05/16 04:01:10;;;;;;;16.77;2.80;;;;;;;10.35;79.53;101884.94;5172589;28;20785;-78
2023/05/16 04:03:41;;;;;;;17.17;4.00;;;;;;;10.33;78.94;101884.16;5172304;28;20137;-78
2023/05/16 04:06:12;;;;;;;18.60;3.97;;;;;;;10.22;79.69;101881.97;5171812;28;20113;-78
2023/05/16 04:08:44;;;;;;;18.63;3.63;;;;;;;10.15;79.31;101865.66;5172007;28;20448;-78
2023/05/16 04:11:15;;;;;;;13.47;3.50;;;;;;;10.30;79.71;101898.19;5172221;28;20027;-78
2023/05/16 04:13:47;;;;;;;16.57;3.17;;;;;;;10.20;80.59;101899.50;5170684;28;20030;-78
2023/05/16 04:16:18;;;;;;;21.97;3.97;;;;;;;10.31;79.18;101899.06;5173012;28;20035;-78
2023/05/16 04:18:50;;;;;;;16.07;3.20;;;;;;;10.37;79.77;101906.66;5220169;28;20080;-77
2023/05/16 04:21:22;;;;;;;21.37;4.93;;;;;;;10.26;79.57;101892.25;5161393;28;20031;-77
2023/05/16 04:23:53;;;;;;;11.00;3.17;;;;;;;10.21;79.73;101888.97;5221776;28;20470;-77
2023/05/16 04:26:26;;;;;;;13.43;2.70;;;;;;;10.07;81.45;101910.47;5233337;28;20028;-77
2023/05/16 04:28:57;;;;;;;14.90;3.30;;;;;;;10.26;80.67;101913.19;5160556;28;20062;-77
2023/05/16 04:31:30;;;;;;;18.97;4.33;;;;;;;10.24;80.63;101906.31;5169543;28;20096;-77
2023/05/16 04:34:01;;;;;;;15.60;3.80;;;;;;;10.17;80.23;101896.09;5157732;28;20037;-77
2023/05/16 04:36:34;;;;;;;10.70;2.53;;;;;;;10.13;80.44;101897.16;5168796;28;20023;-77
2023/05/16 04:39:06;;;;;;;15.43;3.20;;;;;;;10.22;80.55;101916.88;5162609;28;20636;-77
2023/05/16 04:41:37;;;;;;;18.33;3.80;;;;;;;9.98;83.02;101905.63;5151153;28;20036;-77
2023/05/16 04:44:10;;;;;;;16.77;3.90;;;;;;;9.92;82.88;101902.34;5151212;28;20518;-77
2023/05/16 04:46:41;;;;;;;15.13;3.97;;;;;;;9.99;82.87;101912.56;5167507;28;20035;-77
2023/05/16 04:49:13;;;;;;;14.03;3.70;;;;;;;10.00;83.18;101929.97;5164099;28;20118;-79
2023/05/16 04:51:46;;;;;;;14.27;3.03;;;;;;;9.93;83.36;101906.66;5218403;28;20039;-76
2023/05/16 04:54:17;;;;;;;20.90;3.97;;;;;;;10.11;82.56;101935.63;5169492;28;20043;-77
2023/05/16 04:56:49;;;;;;;13.90;3.13;;;;;;;9.89;84.13;101910.31;5218721;28;20077;-77
2023/05/16 04:59:20;;;;;;;19.30;3.60;;;;;;;9.92;85.84;101944.22;5235977;28;20436;-77
2023/05/16 05:01:51;;;;;;;15.50;3.80;;;;;;;9.90;85.27;101940.78;5159055;28;20059;-77
2023/05/16 05:04:24;;;;;;;10.37;3.40;;;;;;;10.14;84.94;101947.75;5164514;28;20066;-78
2023/05/16 05:06:55;;;;;;;12.50;3.07;;;;;;;10.12;83.51;101936.47;5171103;28;20027;-77
2023/05/16 05:09:26;;;;;;;12.40;2.73;;;;;;;10.08;85.25;101934.88;5237464;28;20565;-77
2023/05/16 05:11:58;;;;;;;16.30;4.40;;;;;;;10.00;85.90;101927.34;5171009;28;20405;-77
2023/05/16 05:14:29;;;;;;;10.63;3.27;;;;;;;10.17;85.17;101935.34;5170076;28;20034;-75
2023/05/16 05:17:01;;;;;;;14.33;2.70;;;;;;;9.91;84.97;101916.31;5171459;28;20030;-77
2023/05/16 05:19:32;;;;;;;9.63;3.37;;;;;;;10.17;86.36;101937.97;5237923;28;20027;-76
2023/05/16 05:22:04;;;;;;;16.27;4.37;;;;;;;9.99;86.27;101915.16;5161387;28;20031;-77
2023/05/16 05:24:35;;;;;;;14.87;3.40;;;;;;;10.31;85.25;101970.63;5197484;28;20059;-76
2023/05/16 05:27:07;;;;;;;18.77;3.20;;;;;;;10.39;84.16;101947.59;5177097;28;20039;-76
2023/05/16 05:29:39;;;;;;;14.47;3.50;;;;;;;10.29;85.30;101941.03;5155536;28;20039;-78
2023/05/16 05:32:10;;;;;;;16.60;3.60;;;;;;;10.26;85.70;101941.16;5171336;28;20058;-78
2023/05/16 05:34:42;;;;;;;13.00;2.70;;;;;;;10.40;84.31;101944.03;5170611;28;20435;-76
2023/05/16 05:37:13;;;;;;;13.03;2.57;;;;;;;10.21;85.46;101928.22;5168483;28;20025;-77
2023/05/16 05:39:45;;;;;;;14.77;4.23;;;;;;;10.46;85.33;101963.88;5171308;28;20441;-77
2023/05/16 05:42:16;;;;;;;15.97;3.80;;;;;;;10.44;84.14;101949.16;5185870;28;20026;-77
2023/05/16 05:44:47;;;;;;;13.37;3.27;;;;;;;10.50;83.95;101964.66;5170798;28;20041;-77
2023/05/16 05:47:19;;;;;;;10.47;3.40;;;;;;;10.51;84.00;101961.97;5170342;28;20031;-78
2023/05/16 05:49:50;;;;;;;15.43;3.23;;;;;;;10.52;84.28;101958.41;5170247;28;20111;-78
2023/05/16 05:52:22;;;;;;;14.70;3.50;;;;;;;10.66;83.75;101959.63;5168774;28;20030;-78
2023/05/16 05:54:53;;;;;;;13.80;2.80;;;;;;;10.71;81.31;101962.03;5167512;28;20034;-78
2023/05/16 05:57:25;;;;;;;15.87;3.13;;;;;;;10.71;80.73;101981.25;5223181;28;20019;-77
2023/05/16 05:59:56;;;;;;;12.10;2.97;;;;;;;10.72;80.04;101971.59;5173861;28;20081;-77
2023/05/16 06:02:28;;;;;;;17.27;4.27;;;;;;;10.79;81.48;101972.22;5166941;28;20099;-77
2023/05/16 06:04:59;;;;;;;14.53;3.70;;;;;;;10.64;83.42;101967.56;5195236;28;20035;-77
2023/05/16 06:07:31;;;;;;;14.03;2.87;;;;;;;10.78;80.40;101960.88;5169063;28;20370;-77
2023/05/16 06:10:04;;;;;;;12.87;3.23;;;;;;;10.80;80.63;101960.81;5170242;28;20035;-77
2023/05/16 06:12:35;;;;;;;20.00;3.93;;;;;;;11.06;80.06;101991.13;5168832;28;20062;-77
2023/05/16 06:15:08;;;;;;;15.10;2.93;;;;;;;11.06;79.28;101980.66;5169839;28;20066;-77
2023/05/16 06:17:40;;;;;;;14.77;3.07;;;;;;;11.03;79.18;101986.00;5171335;28;20034;-78
2023/05/16 06:20:12;;;;;;;13.30;3.23;;;;;;;10.95;78.95;101972.38;5170081;28;20133;-77
2023/05/16 06:22:43;;;;;;;14.60;2.97;;;;;;;11.15;79.19;101991.66;5159716;28;20459;-77
2023/05/16 06:25:15;;;;;;;10.13;2.80;;;;;;;11.00;78.43;101987.00;5170134;28;20035;-77
2023/05/16 06:27:46;;;;;;;13.33;3.30;;;;;;;11.19;77.75;101995.84;5234747;28;20023;-77
2023/05/16 06:30:17;;;;;;;17.00;3.83;;;;;;;11.11;77.79;101983.06;5169453;28;20039;-77
2023/05/16 06:32:49;;;;;;;17.17;4.03;;;;;;;11.33;77.31;101997.81;5169760;28;20038;-77
2023/05/16 06:35:20;;;;;;;11.47;2.97;;;;;;;11.54;77.25;102017.00;5168047;28;20106;-78
2023/05/16 06:37:52;;;;;;;14.47;3.00;;;;;;;11.45;77.30;101986.78;5164646;28;20039;-78
2023/05/16 06:40:23;;;;;;;16.97;2.47;;;;;;;11.60;75.19;101998.38;5236452;28;20042;-78
2023/05/16 06:42:57;;;;;;;11.47;2.73;;;;;;;11.52;74.74;101981.28;5235397;28;20022;-78
2023/05/16 06:45:28;;;;;;;14.05;2.53;;;;;;;11.74;73.95;101999.50;5236041;28;20038;-78
2023/05/16 06:48:00;;;;;;;12.87;2.87;;;;;;;11.86;75.44;102011.22;5169883;28;20715;-78
2023/05/16 06:50:31;;;;;;;9.20;2.23;;;;;;;12.02;74.06;102013.97;5235951;28;20029;-78
2023/05/16 06:53:03;;;;;;;13.57;3.23;;;;;;;12.26;75.16;102013.75;5170135;28;20027;-76
2023/05/16 06:55:35;;;;;;;9.23;1.87;;;;;;;12.28;71.55;101984.78;5229436;28;20073;-76
2023/05/16 06:58:07;;;;;;;12.17;2.43;;;;;;;12.57;70.32;102004.34;5238389;28;20046;-76
2023/05/16 07:00:40;;;;;;;12.63;2.80;;;;;;;12.90;70.38;101999.22;5162183;28;20061;-76
2023/05/16 07:03:12;;;;;;;10.37;2.10;;;;;;;13.36;68.89;102017.03;5161622;28;20582;-76
2023/05/16 07:05:43;;;;;;;14.70;3.20;;;;;;;13.58;65.64;102007.19;5188203;28;20030;-76
2023/05/16 07:08:14;;;;;;;15.17;2.50;;;;;;;13.66;64.43;102008.47;5240111;28;20116;-78
2023/05/16 07:10:46;;;;;;;15.80;3.07;;;;;;;13.84;61.74;102011.00;5173055;28;20035;-78
2023/05/16 07:13:17;;;;;;;10.07;3.03;;;;;;;14.18;58.91;102024.09;5172243;28;20332;-77
2023/05/16 07:15:49;;;;;;;11.97;2.67;;;;;;;13.86;58.85;102009.16;5172800;28;20034;-77
2023/05/16 07:18:20;;;;;;;9.40;1.90;;;;;;;14.61;59.00;102025.19;5172885;28;20039;-77
2023/05/16 07:20:52;;;;;;;9.10;2.10;;;;;;;14.58;56.84;101991.94;5172734;28;20030;-77
2023/05/16 07:23:23;;;;;;;13.53;2.80;;;;;;;15.13;54.96;101996.69;5158752;28;20031;-77
2023/05/16 07:25:54;;;;;;;12.17;2.37;;;;;;;15.72;52.95;102001.00;5152914;28;20027;-77
2023/05/16 07:28:26;;;;;;;11.47;2.53;;;;;;;16.59;51.12;101983.09;5218295;28;20031;-77
2023/05/16 07:30:57;;;;;;;10.70;2.33;;;;;;;17.37;48.54;102009.59;5171767;28;20041;-77
2023/05/16 07:33:29;;;;;;;6.83;1.83;;;;;;;17.94;45.32;102022.38;5237718;28;20026;-79
2023/05/16 07:36:02;;;;;;;7.20;1.83;;;;;;;18.68;44.44;102009.06;5171436;28;20023;-78
2023/05/16 07:38:33;;;;;;;12.80;2.20;;;;;;;19.07;42.23;102020.25;5170594;28;20022;-78
2023/05/16 07:41:05;;;;;;;8.47;2.70;;;;;;;18.99;41.67;102002.25;5171838;28;20359;-78
2023/05/16 07:43:36;;;;;;;8.23;1.97;;;;;;;19.22;41.04;102012.91;5171204;28;20030;-79
2023/05/16 07:46:08;;;;;;;6.77;1.70;;;;;;;19.80;38.18;102000.41;5172698;28;20466;-80
2023/05/16 07:48:40;;;;;;;6.37;2.00;;;;;;;19.69;37.28;101998.59;5171596;28;20070;-80
2023/05/16 07:51:11;;;;;;;8.60;1.53;;;;;;;20.28;37.05;102024.09;5173198;28;20054;-79
2023/05/16 07:53:42;;;;;;;5.13;1.27;;;;;;;20.53;36.47;102020.19;5172874;28;20537;-76
2023/05/16 07:56:14;;;;;;;5.57;1.47;;;;;;;19.95;35.95;102029.34;5172247;28;20037;-78
2023/05/16 07:58:47;;;;;;;5.50;1.40;;;;;;;19.87;37.54;102021.16;5237643;28;20060;-77
2023/05/16 08:01:19;;;;;;;5.90;1.95;;;;;;;19.32;36.98;102018.31;5172419;28;20069;-77
2023/05/16 08:03:52;;;;;;;6.13;1.50;;;;;;;18.91;38.27;102017.91;5238406;28;20031;-77
2023/05/16 08:06:24;;;;;;;9.80;1.60;;;;;;;18.65;39.08;102046.44;5171861;28;20427;-77
2023/05/16 08:08:55;;;;;;;5.17;1.60;;;;;;;18.07;40.58;102011.72;5170920;28;20114;-78
2023/05/16 08:11:27;;;;;;;4.97;1.60;;;;;;;18.24;41.16;102001.69;5171798;28;20023;-78
2023/05/16 08:13:58;;;;;;;8.53;1.73;;;;;;;18.71;40.04;102008.84;5170982;28;20063;-77
2023/05/16 08:16:30;;;;;;;8.90;1.97;;;;;;;18.79;39.86;102027.69;5171879;28;20034;-77
2023/05/16 08:19:01;;;;;;;11.80;3.07;;;;;;;19.32;40.09;102030.78;5163948;28;20081;-77
2023/05/16 08:21:32;;;;;;;7.00;2.33;;;;;;;20.18;39.69;102018.66;5159478;28;20111;-77
2023/05/16 08:24:05;;;;;;;7.93;1.93;;;;;;;20.70;38.65;102055.19;5237518;28;20076;-77
2023/05/16 08:26:37;;;;;;;6.87;1.60;;;;;;;21.40;35.62;102027.09;5166528;28;20100;-77
2023/05/16 08:29:08;;;;;;;8.20;1.65;;;;;;;21.08;34.70;102020.13;5156003;28;20058;-76
2023/05/16 08:31:40;;;;;;;9.25;1.55;;;;;;;20.42;35.62;102020.28;5151659;28;20070;-76
2023/05/16 08:34:11;;;;;;;6.50;1.83;;;;;;;20.82;35.91;102024.03;5156297;28;20042;-76
2023/05/16 08:36:42;;;;;;;7.63;1.60;;;;;;;20.35;36.29;102037.72;5158188;28;20031;-76
2023/05/16 08:39:14;;;;;;;9.20;2.10;;;;;;;20.49;37.28;102010.78;5159013;28;20492;-75
2023/05/16 08:41:45;;;;;;;6.47;1.10;;;;;;;21.43;35.00;102026.00;5157602;28;20050;-75
2023/05/16 08:44:20;;;;;;;7.55;1.85;;;;;;;22.34;33.45;102034.88;5160496;28;21806;-76
2023/05/16 08:46:53;;;;;;;3.85;1.23;;;;;;;23.09;33.26;102030.66;5159856;28;21299;-77
2023/05/16 08:49:26;;;;;;;5.85;1.48;;;;;;;22.81;32.28;102015.41;5169116;28;20034;-75
2023/05/16 08:52:00;;;;;;;6.93;1.40;;;;;;;23.94;32.45;102047.53;5224953;28;20038;-76
2023/05/16 08:54:32;;;;;;;4.45;1.65;;;;;;;24.28;30.77;102016.56;5159108;28;20129;-77
2023/05/16 08:57:05;;;;;;;6.63;1.77;;;;;;;24.04;31.04;102028.72;5157405;28;20034;-77
2023/05/16 08:59:36;;;;;;;5.68;1.67;;;;;;;23.72;31.21;102038.94;5158920;28;20129;-77
2023/05/16 09:02:08;;;;;;;7.88;2.80;;;;;;;23.26;31.38;102030.88;5224202;28;20473;-77
2023/05/16 09:04:40;;;;;;;5.95;1.45;;;;;;;22.80;32.10;101997.72;5158550;28;20496;-77
2023/05/16 09:07:12;;;;;;;6.03;2.15;;;;;;;22.60;32.33;102031.59;5224868;28;20443;-77
2023/05/16 09:09:43;;;;;;;8.48;2.17;;;;;;;22.16;33.08;102011.56;5157808;28;20053;-77
2023/05/16 09:12:15;;;;;;;8.25;2.33;;;;;;;22.85;32.26;102021.31;5156658;28;20333;-76
2023/05/16 09:14:46;;;;;;;5.72;1.70;;;;;;;22.21;33.59;102028.00;5158079;28;20108;-77
2023/05/16 09:17:18;;;;;;;4.30;1.38;;;;;;;21.70;33.89;102017.38;5160158;28;20059;-77
2023/05/16 09:19:51;;;;;;;6.25;1.83;;;;;;;21.60;33.92;102029.84;5158005;28;20294;-77
2023/05/16 09:22:23;;;;;;;5.75;1.67;;;;;;;22.37;34.05;102026.56;5159620;28;20046;-77
2023/05/16 09:24:54;;;;;;;5.45;1.80;;;;;;;22.78;31.34;102013.03;5245211;28;20066;-78
2023/05/16 09:27:26;;;;;;;9.65;2.53;;;;;;;22.53;31.98;102004.66;5217805;28;20034;-77
2023/05/16 09:29:58;;;;;;;7.10;1.70;;;;;;;23.19;31.60;102018.09;5224577;28;20200;-79
2023/05/16 09:32:30;;;;;;;4.90;1.77;;;;;;;23.92;31.51;102030.78;5163610;28;20529;-78
2023/05/16 09:35:02;;;;;;;4.10;1.70;;;;;;;24.28;30.76;102029.97;5169318;28;20035;-78
2023/05/16 09:37:33;;;;;;;6.13;2.42;;;;;;;24.62;28.68;102006.97;5161094;28;20029;-79
2023/05/16 09:40:06;;;;;;;7.10;1.73;;;;;;;25.32;27.74;102015.88;5172471;28;20038;-79
2023/05/16 09:42:37;;;;;;;3.78;1.40;;;;;;;26.13;27.03;102025.25;5160226;28;20073;-74
2023/05/16 09:45:13;;;;;;;7.88;1.80;;;;;;;26.70;27.03;102050.44;5159909;28;20030;-78
2023/05/16 09:47:45;;;;;;;4.72;1.33;;;;;;;27.15;26.39;102049.16;5247331;28;20086;-77
2023/05/16 09:50:17;;;;;;;4.47;1.40;;;;;;;26.48;26.15;102040.41;5199184;28;20035;-78
2023/05/16 09:52:50;;;;;;;6.55;1.60;;;;;;;25.28;27.44;102037.78;5166170;28;20096;-78
2023/05/16 09:55:22;;;;;;;5.45;1.55;;;;;;;25.32;27.92;102031.97;5163838;28;20600;-78
2023/05/16 09:57:54;;;;;;;4.07;1.35;;;;;;;24.60;28.78;102033.91;5167230;28;20098;-79
2023/05/16 10:00:30;;;;;;;7.07;1.77;;;;;;;24.27;30.39;102039.84;5162938;28;20379;-78
2023/05/16 10:03:02;;;;;;;5.10;1.70;;;;;;;24.66;29.49;102040.47;5159718;28;20643;-78
2023/05/16 10:05:35;;;;;;;7.95;2.33;;;;;;;25.49;28.86;102051.63;5231855;28;20042;-78
2023/05/16 10:08:08;;;;;;;6.57;2.10;;;;;;;25.89;28.29;102020.72;5162769;28;20035;-78
2023/05/16 10:10:54;;;;;;;6.65;1.35;;;;;;;26.69;27.61;102032.63;5224908;28;20548;-78
2023/05/16 10:13:33;;;;;;;10.45;1.60;;;;;;;26.68;26.27;102019.38;5221997;28;20329;-78
2023/05/16 10:16:11;;;;;;;8.93;1.98;;;;;;;26.82;26.30;102034.78;5163503;28;20031;-78
2023/05/16 10:18:42;;;;;;;6.03;1.27;;;;;;;26.10;25.60;102034.50;5160576;28;20105;-78
2023/05/16 10:21:15;;;;;;;5.90;1.60;;;;;;;26.45;25.03;102041.56;5162720;28;20031;-78
2023/05/16 10:23:50;;;;;;;4.03;1.58;;;;;;;27.26;24.62;102051.47;5159220;28;20023;-78
2023/05/16 10:26:23;;;;;;;6.03;2.03;;;;;;;27.52;24.43;102022.59;5228587;28;20497;-78
2023/05/16 10:28:55;;;;;;;5.97;1.60;;;;;;;28.15;23.79;102035.16;5190223;28;20034;-78
2023/05/16 10:31:28;;;;;;;5.30;1.55;;;;;;;27.89;23.52;102041.75;5165866;28;20030;-77
2023/05/16 10:33:59;;;;;;;9.32;1.42;;;;;;;26.83;23.60;102019.50;5221131;28;21603;-78
2023/05/16 10:36:31;;;;;;;5.15;1.70;;;;;;;25.66;25.27;102032.09;5157066;28;20026;-78
2023/05/16 10:39:03;;;;;;;8.52;1.85;;;;;;;26.53;25.08;102032.66;5157466;28;20034;-78
2023/05/16 10:41:35;;;;;;;4.88;1.45;;;;;;;26.76;24.75;102019.34;5226772;28;20034;-78
2023/05/16 10:44:14;;;;;;;6.18;1.80;;;;;;;27.48;25.23;102022.13;5168667;28;20568;-78
2023/05/16 10:46:47;;;;;;;9.45;1.73;;;;;;;27.14;23.34;102042.94;5165351;28;20808;-78
2023/05/16 10:49:23;;;;;;;4.53;1.20;;;;;;;27.56;23.41;102017.69;5168496;28;20061;-78
2023/05/16 10:52:04;;;;;;;5.38;1.45;;;;;;;26.69;25.03;102021.88;5165528;28;20039;-79
2023/05/16 10:54:38;;;;;;;6.15;1.40;;;;;;;26.15;25.41;102046.56;5161004;28;20037;-78
2023/05/16 10:57:16;;;;;;;4.47;1.67;;;;;;;25.78;25.18;102043.34;5232803;28;20015;-78
2023/05/16 10:59:49;;;;;;;5.93;1.75;;;;;;;26.14;25.44;102040.38;5235047;28;20027;-77
2023/05/16 11:02:32;;;;;;;5.05;1.70;;;;;;;26.63;25.48;102041.38;5180935;28;20042;-77
2023/05/16 11:05:05;;;;;;;6.07;1.48;;;;;;;26.43;25.01;102014.88;5170133;28;20121;-78
2023/05/16 11:07:37;;;;;;;9.10;1.92;;;;;;;25.44;25.08;102012.88;5167761;28;20038;-77
2023/05/16 11:10:14;;;;;;;7.38;1.90;;;;;;;26.03;25.69;102030.81;5168918;28;20096;-78
2023/05/16 11:12:51;;;;;;;7.20;2.05;;;;;;;25.40;27.53;102009.69;5169268;28;20488;-78
2023/05/16 11:15:27;;;;;;;12.38;1.85;;;;;;;25.79;25.59;102021.72;5187847;28;20022;-78
2023/05/16 11:18:05;;;;;;;6.38;2.10;;;;;;;26.03;26.65;102049.59;5172416;28;20027;-78
2023/05/16 11:20:38;;;;;;;7.10;1.83;;;;;;;26.05;26.55;102019.91;5169169;28;20035;-77
2023/05/16 11:23:20;;;;;;;6.20;1.80;;;;;;;26.28;25.94;102052.28;5168623;28;20421;-77
2023/05/16 11:25:54;;;;;;;4.75;1.50;;;;;;;25.31;26.32;102014.19;5168155;28;20368;-77
2023/05/16 11:28:26;;;;;;;;;;;;;;;27.15;26.19;102044.63;5168101;28;20072;-77
2023/05/16 11:30:58;;;;;;;7.93;1.63;;;;;;;25.33;26.65;102033.63;5168117;28;19914;-77
2023/05/16 11:33:33;;;;;;;5.45;1.83;;;;;;;25.24;26.05;102026.53;5168398;28;20022;-77
2023/05/16 11:36:07;;;;;;;5.25;1.42;;;;;;;25.06;26.38;102024.81;5168475;28;20023;-77
2023/05/16 11:38:42;;;;;;;4.45;1.60;;;;;;;24.57;27.50;102054.78;5165373;28;20045;-77
2023/05/16 11:41:16;;;;;;;4.88;1.83;;;;;;;25.39;26.76;102042.88;5159735;28;20055;-77
2023/05/16 11:43:47;;;;;;;7.18;1.50;;;;;;;25.50;26.84;102045.25;5171126;28;20382;-78
2023/05/16 11:46:19;;;;;;;6.97;1.67;;;;;;;25.01;28.15;102024.47;5172567;28;20030;-78
2023/05/16 11:48:50;;;;;;;6.85;1.83;;;;;;;25.05;27.77;102052.59;5182632;28;20035;-76